sensor_id;sensor_type;location;lat;lon;timestamp;P1;durP1;ratioP1;P2;durP2;ratioP2
14394;SDS011;7282;49.204;10.652;2024-02-23T00:01:44;0.70;;;0.70;;
14394;SDS011;7282;49.204;10.652;2024-02-23T00:04:11;1.03;;;0.63;;
14394;SDS011;7282;49.204;10.652;2024-02-23T00:06:38;0.80;;;0.80;;
14394;SDS011;7282;49.204;10.652;2024-02-23T00:09:04;0.80;;;0.80;;
14394;SDS011;7282;49.204;10.652;2024-02-23T00:11:31;0.80;;;0.70;;
14394;SDS011;7282;49.204;10.652;2024-02-23T00:14:00;1.23;;;0.60;;
14394;SDS011;7282;49.204;10.652;2024-02-23T00:16:27;0.57;;;0.57;;
14394;SDS011;7282;49.204;10.652;2024-02-23T00:18:55;0.70;;;0.70;;
14394;SDS011;7282;49.204;10.652;2024-02-23T00:21:23;0.80;;;0.77;;
14394;SDS011;7282;49.204;10.652;2024-02-23T00:23:49;1.40;;;1.00;;
14394;SDS011;7282;49.204;10.652;2024-02-23T00:26:16;0.87;;;0.87;;
14394;SDS011;7282;49.204;10.652;2024-02-23T00:28:43;0.67;;;0.60;;
14394;SDS011;7282;49.204;10.652;2024-02-23T00:31:09;0.60;;;0.60;;
14394;SDS011;7282;49.204;10.652;2024-02-23T00:33:36;0.50;;;0.50;;
14394;SDS011;7282;49.204;10.652;2024-02-23T00:36:03;0.73;;;0.73;;
14394;SDS011;7282;49.204;10.652;2024-02-23T00:38:30;0.70;;;0.70;;
14394;SDS011;7282;49.204;10.652;2024-02-23T00:40:57;2.57;;;0.83;;
14394;SDS011;7282;49.204;10.652;2024-02-23T00:43:23;1.07;;;0.83;;
14394;SDS011;7282;49.204;10.652;2024-02-23T00:45:50;2.40;;;0.63;;
14394;SDS011;7282;49.204;10.652;2024-02-23T00:48:17;0.97;;;0.87;;
14394;SDS011;7282;49.204;10.652;2024-02-23T00:50:44;0.70;;;0.60;;
14394;SDS011;7282;49.204;10.652;2024-02-23T00:53:10;0.70;;;0.70;;
14394;SDS011;7282;49.204;10.652;2024-02-23T00:55:37;1.20;;;1.03;;
14394;SDS011;7282;49.204;10.652;2024-02-23T00:58:04;0.73;;;0.70;;
14394;SDS011;7282;49.204;10.652;2024-02-23T01:00:30;1.63;;;0.70;;
14394;SDS011;7282;49.204;10.652;2024-02-23T01:03:00;0.80;;;0.70;;
14394;SDS011;7282;49.204;10.652;2024-02-23T01:05:26;1.90;;;0.80;;
14394;SDS011;7282;49.204;10.652;2024-02-23T01:07:53;1.37;;;0.70;;
14394;SDS011;7282;49.204;10.652;2024-02-23T01:10:20;1.23;;;0.80;;
14394;SDS011;7282;49.204;10.652;2024-02-23T01:12:46;1.03;;;0.80;;
14394;SDS011;7282;49.204;10.652;2024-02-23T01:15:13;1.00;;;0.93;;
14394;SDS011;7282;49.204;10.652;2024-02-23T01:17:40;5.03;;;1.07;;
14394;SDS011;7282;49.204;10.652;2024-02-23T01:20:07;0.93;;;0.90;;
14394;SDS011;7282;49.204;10.652;2024-02-23T01:22:33;0.70;;;0.70;;
14394;SDS011;7282;49.204;10.652;2024-02-23T01:25:00;0.93;;;0.83;;
14394;SDS011;7282;49.204;10.652;2024-02-23T01:27:27;2.57;;;0.90;;
14394;SDS011;7282;49.204;10.652;2024-02-23T01:29:53;1.00;;;0.90;;
14394;SDS011;7282;49.204;10.652;2024-02-23T01:32:20;0.93;;;0.93;;
14394;SDS011;7282;49.204;10.652;2024-02-23T01:34:47;1.27;;;0.90;;
14394;SDS011;7282;49.204;10.652;2024-02-23T01:37:13;0.70;;;0.70;;
14394;SDS011;7282;49.204;10.652;2024-02-23T01:39:40;1.37;;;1.07;;
14394;SDS011;7282;49.204;10.652;2024-02-23T01:42:07;1.10;;;1.00;;
14394;SDS011;7282;49.204;10.652;2024-02-23T01:44:34;1.53;;;1.00;;
14394;SDS011;7282;49.204;10.652;2024-02-23T01:47:01;1.13;;;0.90;;
14394;SDS011;7282;49.204;10.652;2024-02-23T01:49:28;1.10;;;1.00;;
14394;SDS011;7282;49.204;10.652;2024-02-23T01:52:00;0.80;;;0.80;;
14394;SDS011;7282;49.204;10.652;2024-02-23T01:54:27;2.00;;;0.90;;
14394;SDS011;7282;49.204;10.652;2024-02-23T01:56:56;1.97;;;0.90;;
14394;SDS011;7282;49.204;10.652;2024-02-23T01:59:23;2.20;;;0.90;;
14394;SDS011;7282;49.204;10.652;2024-02-23T02:01:51;2.20;;;1.10;;
14394;SDS011;7282;49.204;10.652;2024-02-23T02:04:18;2.53;;;1.07;;
14394;SDS011;7282;49.204;10.652;2024-02-23T02:06:48;2.13;;;1.03;;
14394;SDS011;7282;49.204;10.652;2024-02-23T02:09:14;1.17;;;1.13;;
14394;SDS011;7282;49.204;10.652;2024-02-23T02:11:47;2.10;;;1.10;;
14394;SDS011;7282;49.204;10.652;2024-02-23T02:14:17;2.17;;;1.27;;
14394;SDS011;7282;49.204;10.652;2024-02-23T02:16:44;0.80;;;0.80;;
14394;SDS011;7282;49.204;10.652;2024-02-23T02:19:11;1.03;;;0.90;;
14394;SDS011;7282;49.204;10.652;2024-02-23T02:21:38;1.30;;;1.00;;
14394;SDS011;7282;49.204;10.652;2024-02-23T02:24:05;1.70;;;1.10;;
14394;SDS011;7282;49.204;10.652;2024-02-23T02:26:32;2.90;;;1.10;;
14394;SDS011;7282;49.204;10.652;2024-02-23T02:28:59;1.87;;;1.00;;
14394;SDS011;7282;49.204;10.652;2024-02-23T02:31:25;3.07;;;0.90;;
14394;SDS011;7282;49.204;10.652;2024-02-23T02:33:52;2.23;;;1.10;;
14394;SDS011;7282;49.204;10.652;2024-02-23T02:36:19;2.23;;;1.33;;
14394;SDS011;7282;49.204;10.652;2024-02-23T02:38:46;1.87;;;0.90;;
14394;SDS011;7282;49.204;10.652;2024-02-23T02:41:12;1.37;;;1.00;;
14394;SDS011;7282;49.204;10.652;2024-02-23T02:43:39;2.03;;;1.20;;
14394;SDS011;7282;49.204;10.652;2024-02-23T02:46:06;1.63;;;1.20;;
14394;SDS011;7282;49.204;10.652;2024-02-23T02:48:32;1.30;;;1.20;;
14394;SDS011;7282;49.204;10.652;2024-02-23T02:50:59;2.37;;;1.20;;
14394;SDS011;7282;49.204;10.652;2024-02-23T02:53:26;2.73;;;1.20;;
14394;SDS011;7282;49.204;10.652;2024-02-23T02:55:52;2.10;;;1.33;;
14394;SDS011;7282;49.204;10.652;2024-02-23T02:58:19;1.80;;;1.20;;
14394;SDS011;7282;49.204;10.652;2024-02-23T03:00:46;1.77;;;1.13;;
14394;SDS011;7282;49.204;10.652;2024-02-23T03:03:13;1.53;;;1.10;;
14394;SDS011;7282;49.204;10.652;2024-02-23T03:05:39;1.80;;;0.97;;
14394;SDS011;7282;49.204;10.652;2024-02-23T03:08:06;3.13;;;1.33;;
14394;SDS011;7282;49.204;10.652;2024-02-23T03:10:33;2.77;;;1.20;;
14394;SDS011;7282;49.204;10.652;2024-02-23T03:12:59;3.83;;;1.67;;
14394;SDS011;7282;49.204;10.652;2024-02-23T03:15:26;4.17;;;1.43;;
14394;SDS011;7282;49.204;10.652;2024-02-23T03:17:53;3.30;;;1.70;;
14394;SDS011;7282;49.204;10.652;2024-02-23T03:20:21;3.87;;;1.67;;
14394;SDS011;7282;49.204;10.652;2024-02-23T03:22:48;2.80;;;1.50;;
14394;SDS011;7282;49.204;10.652;2024-02-23T03:25:15;1.67;;;1.33;;
14394;SDS011;7282;49.204;10.652;2024-02-23T03:27:41;3.67;;;1.50;;
14394;SDS011;7282;49.204;10.652;2024-02-23T03:30:08;3.77;;;1.60;;
14394;SDS011;7282;49.204;10.652;2024-02-23T03:32:35;2.57;;;1.50;;
14394;SDS011;7282;49.204;10.652;2024-02-23T03:35:08;4.37;;;1.50;;
14394;SDS011;7282;49.204;10.652;2024-02-23T03:37:35;1.57;;;1.30;;
14394;SDS011;7282;49.204;10.652;2024-02-23T03:40:02;4.23;;;1.50;;
14394;SDS011;7282;49.204;10.652;2024-02-23T03:42:30;1.87;;;1.20;;
14394;SDS011;7282;49.204;10.652;2024-02-23T03:44:57;4.17;;;1.57;;
14394;SDS011;7282;49.204;10.652;2024-02-23T03:47:24;3.57;;;1.87;;
14394;SDS011;7282;49.204;10.652;2024-02-23T03:49:50;3.33;;;1.50;;
14394;SDS011;7282;49.204;10.652;2024-02-23T03:52:17;4.40;;;1.50;;
14394;SDS011;7282;49.204;10.652;2024-02-23T03:54:44;4.00;;;1.57;;
14394;SDS011;7282;49.204;10.652;2024-02-23T03:57:10;3.00;;;1.60;;
14394;SDS011;7282;49.204;10.652;2024-02-23T03:59:37;3.40;;;1.60;;
14394;SDS011;7282;49.204;10.652;2024-02-23T04:02:04;3.47;;;1.20;;
14394;SDS011;7282;49.204;10.652;2024-02-23T04:04:30;2.77;;;1.40;;
14394;SDS011;7282;49.204;10.652;2024-02-23T04:06:57;2.83;;;1.33;;
14394;SDS011;7282;49.204;10.652;2024-02-23T04:09:24;4.43;;;1.60;;
14394;SDS011;7282;49.204;10.652;2024-02-23T04:11:51;2.60;;;1.50;;
14394;SDS011;7282;49.204;10.652;2024-02-23T04:14:17;3.20;;;2.17;;
14394;SDS011;7282;49.204;10.652;2024-02-23T04:16:44;2.90;;;2.00;;
14394;SDS011;7282;49.204;10.652;2024-02-23T04:19:11;6.30;;;3.00;;
14394;SDS011;7282;49.204;10.652;2024-02-23T04:21:37;5.47;;;2.20;;
14394;SDS011;7282;49.204;10.652;2024-02-23T04:24:04;4.30;;;1.90;;
14394;SDS011;7282;49.204;10.652;2024-02-23T04:26:32;3.53;;;2.20;;
14394;SDS011;7282;49.204;10.652;2024-02-23T04:28:59;4.27;;;2.60;;
14394;SDS011;7282;49.204;10.652;2024-02-23T04:31:25;2.27;;;1.50;;
14394;SDS011;7282;49.204;10.652;2024-02-23T04:33:52;7.00;;;2.63;;
14394;SDS011;7282;49.204;10.652;2024-02-23T04:36:19;4.17;;;2.83;;
14394;SDS011;7282;49.204;10.652;2024-02-23T04:38:47;4.57;;;2.60;;
14394;SDS011;7282;49.204;10.652;2024-02-23T04:41:13;7.83;;;3.23;;
14394;SDS011;7282;49.204;10.652;2024-02-23T04:43:40;4.80;;;2.80;;
14394;SDS011;7282;49.204;10.652;2024-02-23T04:46:07;5.97;;;2.83;;
14394;SDS011;7282;49.204;10.652;2024-02-23T04:48:33;7.93;;;3.63;;
14394;SDS011;7282;49.204;10.652;2024-02-23T04:51:02;5.47;;;3.13;;
14394;SDS011;7282;49.204;10.652;2024-02-23T04:53:29;7.47;;;2.93;;
14394;SDS011;7282;49.204;10.652;2024-02-23T04:55:55;8.20;;;3.33;;
14394;SDS011;7282;49.204;10.652;2024-02-23T04:58:22;6.40;;;2.53;;
14394;SDS011;7282;49.204;10.652;2024-02-23T05:00:49;7.30;;;3.13;;
14394;SDS011;7282;49.204;10.652;2024-02-23T05:03:15;5.27;;;2.23;;
14394;SDS011;7282;49.204;10.652;2024-02-23T05:05:42;5.03;;;2.83;;
14394;SDS011;7282;49.204;10.652;2024-02-23T05:08:09;4.67;;;3.13;;
14394;SDS011;7282;49.204;10.652;2024-02-23T05:10:35;6.60;;;3.70;;
14394;SDS011;7282;49.204;10.652;2024-02-23T05:13:02;9.37;;;3.50;;
14394;SDS011;7282;49.204;10.652;2024-02-23T05:15:29;4.77;;;2.47;;
14394;SDS011;7282;49.204;10.652;2024-02-23T05:17:56;3.53;;;2.20;;
14394;SDS011;7282;49.204;10.652;2024-02-23T05:20:23;4.10;;;2.20;;
14394;SDS011;7282;49.204;10.652;2024-02-23T05:22:49;2.73;;;1.80;;
14394;SDS011;7282;49.204;10.652;2024-02-23T05:25:16;4.33;;;2.20;;
14394;SDS011;7282;49.204;10.652;2024-02-23T05:27:43;5.93;;;3.40;;
14394;SDS011;7282;49.204;10.652;2024-02-23T05:30:10;9.03;;;4.67;;
14394;SDS011;7282;49.204;10.652;2024-02-23T05:32:37;6.43;;;4.00;;
14394;SDS011;7282;49.204;10.652;2024-02-23T05:35:04;4.03;;;2.50;;
14394;SDS011;7282;49.204;10.652;2024-02-23T05:37:31;4.63;;;2.50;;
14394;SDS011;7282;49.204;10.652;2024-02-23T05:39:57;4.87;;;2.47;;
14394;SDS011;7282;49.204;10.652;2024-02-23T05:42:28;2.83;;;2.10;;
14394;SDS011;7282;49.204;10.652;2024-02-23T05:44:55;4.20;;;2.37;;
14394;SDS011;7282;49.204;10.652;2024-02-23T05:47:22;4.57;;;2.23;;
14394;SDS011;7282;49.204;10.652;2024-02-23T05:49:49;3.30;;;1.73;;
14394;SDS011;7282;49.204;10.652;2024-02-23T05:52:16;2.03;;;1.50;;
14394;SDS011;7282;49.204;10.652;2024-02-23T05:54:43;3.43;;;1.80;;
14394;SDS011;7282;49.204;10.652;2024-02-23T05:57:10;4.17;;;1.70;;
14394;SDS011;7282;49.204;10.652;2024-02-23T05:59:37;2.60;;;1.50;;
14394;SDS011;7282;49.204;10.652;2024-02-23T06:02:03;6.73;;;1.90;;
14394;SDS011;7282;49.204;10.652;2024-02-23T06:04:30;4.03;;;1.70;;
14394;SDS011;7282;49.204;10.652;2024-02-23T06:06:57;2.73;;;1.73;;
14394;SDS011;7282;49.204;10.652;2024-02-23T06:09:23;2.33;;;1.70;;
14394;SDS011;7282;49.204;10.652;2024-02-23T06:11:50;1.63;;;1.50;;
14394;SDS011;7282;49.204;10.652;2024-02-23T06:14:17;6.97;;;1.83;;
14394;SDS011;7282;49.204;10.652;2024-02-23T06:16:44;1.87;;;1.40;;
14394;SDS011;7282;49.204;10.652;2024-02-23T06:19:11;2.20;;;1.23;;
14394;SDS011;7282;49.204;10.652;2024-02-23T06:21:41;1.30;;;1.10;;
14394;SDS011;7282;49.204;10.652;2024-02-23T06:24:07;4.17;;;1.77;;
14394;SDS011;7282;49.204;10.652;2024-02-23T06:26:34;2.43;;;1.30;;
14394;SDS011;7282;49.204;10.652;2024-02-23T06:29:01;4.03;;;1.73;;
14394;SDS011;7282;49.204;10.652;2024-02-23T06:31:29;2.00;;;1.43;;
14394;SDS011;7282;49.204;10.652;2024-02-23T06:33:56;4.13;;;1.70;;
14394;SDS011;7282;49.204;10.652;2024-02-23T06:36:23;3.53;;;2.10;;
14394;SDS011;7282;49.204;10.652;2024-02-23T06:38:50;4.30;;;2.10;;
14394;SDS011;7282;49.204;10.652;2024-02-23T06:41:16;5.57;;;1.57;;
14394;SDS011;7282;49.204;10.652;2024-02-23T06:43:43;4.10;;;1.57;;
14394;SDS011;7282;49.204;10.652;2024-02-23T06:46:10;4.83;;;2.30;;
14394;SDS011;7282;49.204;10.652;2024-02-23T06:48:37;5.47;;;2.27;;
14394;SDS011;7282;49.204;10.652;2024-02-23T06:51:06;3.33;;;2.07;;
14394;SDS011;7282;49.204;10.652;2024-02-23T06:53:35;5.43;;;2.40;;
14394;SDS011;7282;49.204;10.652;2024-02-23T06:56:02;2.40;;;1.67;;
14394;SDS011;7282;49.204;10.652;2024-02-23T06:58:29;4.87;;;1.90;;
14394;SDS011;7282;49.204;10.652;2024-02-23T07:00:55;3.63;;;1.80;;
14394;SDS011;7282;49.204;10.652;2024-02-23T07:03:22;3.53;;;1.70;;
14394;SDS011;7282;49.204;10.652;2024-02-23T07:05:49;2.40;;;1.60;;
14394;SDS011;7282;49.204;10.652;2024-02-23T07:08:16;2.70;;;1.77;;
14394;SDS011;7282;49.204;10.652;2024-02-23T07:10:45;4.10;;;1.80;;
14394;SDS011;7282;49.204;10.652;2024-02-23T07:13:12;4.33;;;1.70;;
14394;SDS011;7282;49.204;10.652;2024-02-23T07:15:39;2.70;;;1.70;;
14394;SDS011;7282;49.204;10.652;2024-02-23T07:18:05;2.03;;;1.30;;
14394;SDS011;7282;49.204;10.652;2024-02-23T07:20:39;3.20;;;1.93;;
14394;SDS011;7282;49.204;10.652;2024-02-23T07:23:02;3.13;;;1.60;;
14394;SDS011;7282;49.204;10.652;2024-02-23T07:25:29;1.60;;;1.40;;
14394;SDS011;7282;49.204;10.652;2024-02-23T07:27:56;3.13;;;1.40;;
14394;SDS011;7282;49.204;10.652;2024-02-23T07:30:23;4.67;;;1.40;;
14394;SDS011;7282;49.204;10.652;2024-02-23T07:32:49;2.97;;;1.50;;
14394;SDS011;7282;49.204;10.652;2024-02-23T07:35:16;3.33;;;1.60;;
14394;SDS011;7282;49.204;10.652;2024-02-23T07:37:43;1.97;;;1.40;;
14394;SDS011;7282;49.204;10.652;2024-02-23T07:40:09;1.50;;;1.40;;
14394;SDS011;7282;49.204;10.652;2024-02-23T07:42:36;2.13;;;1.30;;
14394;SDS011;7282;49.204;10.652;2024-02-23T07:45:03;3.37;;;1.70;;
14394;SDS011;7282;49.204;10.652;2024-02-23T07:47:30;2.77;;;1.50;;
14394;SDS011;7282;49.204;10.652;2024-02-23T07:49:58;2.00;;;1.63;;
14394;SDS011;7282;49.204;10.652;2024-02-23T07:52:25;2.40;;;1.63;;
14394;SDS011;7282;49.204;10.652;2024-02-23T07:54:52;2.37;;;1.60;;
14394;SDS011;7282;49.204;10.652;2024-02-23T07:57:19;1.60;;;1.50;;
14394;SDS011;7282;49.204;10.652;2024-02-23T07:59:46;3.20;;;1.37;;
14394;SDS011;7282;49.204;10.652;2024-02-23T08:02:14;3.40;;;1.53;;
14394;SDS011;7282;49.204;10.652;2024-02-23T08:04:41;2.33;;;1.50;;
14394;SDS011;7282;49.204;10.652;2024-02-23T08:07:08;4.27;;;1.90;;
14394;SDS011;7282;49.204;10.652;2024-02-23T08:09:35;3.17;;;1.90;;
14394;SDS011;7282;49.204;10.652;2024-02-23T08:12:02;6.27;;;2.50;;
14394;SDS011;7282;49.204;10.652;2024-02-23T08:14:28;3.80;;;2.50;;
14394;SDS011;7282;49.204;10.652;2024-02-23T08:16:55;4.93;;;2.60;;
14394;SDS011;7282;49.204;10.652;2024-02-23T08:19:22;5.90;;;2.50;;
14394;SDS011;7282;49.204;10.652;2024-02-23T08:21:48;5.77;;;2.37;;
14394;SDS011;7282;49.204;10.652;2024-02-23T08:24:15;5.67;;;2.73;;
14394;SDS011;7282;49.204;10.652;2024-02-23T08:26:42;2.27;;;1.60;;
14394;SDS011;7282;49.204;10.652;2024-02-23T08:29:08;4.30;;;2.03;;
14394;SDS011;7282;49.204;10.652;2024-02-23T08:31:35;3.60;;;1.70;;
14394;SDS011;7282;49.204;10.652;2024-02-23T08:34:02;2.90;;;1.30;;
14394;SDS011;7282;49.204;10.652;2024-02-23T08:36:29;1.63;;;1.50;;
14394;SDS011;7282;49.204;10.652;2024-02-23T08:38:55;2.87;;;1.50;;
14394;SDS011;7282;49.204;10.652;2024-02-23T08:41:22;3.40;;;1.90;;
14394;SDS011;7282;49.204;10.652;2024-02-23T08:43:49;3.27;;;1.83;;
14394;SDS011;7282;49.204;10.652;2024-02-23T08:46:16;3.20;;;2.03;;
14394;SDS011;7282;49.204;10.652;2024-02-23T08:48:42;3.20;;;1.57;;
14394;SDS011;7282;49.204;10.652;2024-02-23T08:51:09;1.70;;;1.30;;
14394;SDS011;7282;49.204;10.652;2024-02-23T08:53:36;4.20;;;2.10;;
14394;SDS011;7282;49.204;10.652;2024-02-23T08:56:03;3.50;;;2.33;;
14394;SDS011;7282;49.204;10.652;2024-02-23T08:58:30;5.37;;;2.00;;
14394;SDS011;7282;49.204;10.652;2024-02-23T09:00:57;2.47;;;1.40;;
14394;SDS011;7282;49.204;10.652;2024-02-23T09:03:23;6.13;;;1.57;;
14394;SDS011;7282;49.204;10.652;2024-02-23T09:05:50;6.13;;;1.57;;
14394;SDS011;7282;49.204;10.652;2024-02-23T09:08:17;5.93;;;2.00;;
14394;SDS011;7282;49.204;10.652;2024-02-23T09:10:44;6.57;;;2.30;;
14394;SDS011;7282;49.204;10.652;2024-02-23T09:13:10;4.67;;;2.13;;
14394;SDS011;7282;49.204;10.652;2024-02-23T09:15:37;2.33;;;1.83;;
14394;SDS011;7282;49.204;10.652;2024-02-23T09:18:04;1.70;;;1.60;;
14394;SDS011;7282;49.204;10.652;2024-02-23T09:20:30;3.37;;;1.67;;
14394;SDS011;7282;49.204;10.652;2024-02-23T09:22:57;5.73;;;1.63;;
14394;SDS011;7282;49.204;10.652;2024-02-23T09:25:24;2.60;;;1.57;;
14394;SDS011;7282;49.204;10.652;2024-02-23T09:27:51;3.00;;;1.63;;
14394;SDS011;7282;49.204;10.652;2024-02-23T09:30:18;2.60;;;1.30;;
14394;SDS011;7282;49.204;10.652;2024-02-23T09:32:45;2.07;;;1.00;;
14394;SDS011;7282;49.204;10.652;2024-02-23T09:35:12;3.20;;;1.77;;
14394;SDS011;7282;49.204;10.652;2024-02-23T09:37:38;3.80;;;1.90;;
14394;SDS011;7282;49.204;10.652;2024-02-23T09:40:05;4.20;;;2.00;;
14394;SDS011;7282;49.204;10.652;2024-02-23T09:42:32;2.53;;;1.53;;
14394;SDS011;7282;49.204;10.652;2024-02-23T09:44:59;1.37;;;1.23;;
14394;SDS011;7282;49.204;10.652;2024-02-23T09:47:27;2.93;;;1.70;;
14394;SDS011;7282;49.204;10.652;2024-02-23T09:49:54;1.40;;;1.30;;
14394;SDS011;7282;49.204;10.652;2024-02-23T09:52:21;1.67;;;1.30;;
14394;SDS011;7282;49.204;10.652;2024-02-23T09:54:48;1.40;;;1.30;;
14394;SDS011;7282;49.204;10.652;2024-02-23T09:57:15;1.57;;;1.30;;
14394;SDS011;7282;49.204;10.652;2024-02-23T09:59:43;2.03;;;1.30;;
14394;SDS011;7282;49.204;10.652;2024-02-23T10:02:14;1.50;;;1.30;;
14394;SDS011;7282;49.204;10.652;2024-02-23T10:04:39;1.50;;;1.40;;
14394;SDS011;7282;49.204;10.652;2024-02-23T10:07:06;1.43;;;1.33;;
14394;SDS011;7282;49.204;10.652;2024-02-23T10:09:33;3.17;;;2.20;;
14394;SDS011;7282;49.204;10.652;2024-02-23T10:12:00;5.17;;;2.20;;
14394;SDS011;7282;49.204;10.652;2024-02-23T10:14:27;3.30;;;1.80;;
14394;SDS011;7282;49.204;10.652;2024-02-23T10:16:54;2.90;;;1.57;;
14394;SDS011;7282;49.204;10.652;2024-02-23T10:19:21;3.70;;;1.60;;
14394;SDS011;7282;49.204;10.652;2024-02-23T10:21:48;2.17;;;1.60;;
14394;SDS011;7282;49.204;10.652;2024-02-23T10:24:17;2.00;;;1.40;;
14394;SDS011;7282;49.204;10.652;2024-02-23T10:26:44;3.43;;;1.73;;
14394;SDS011;7282;49.204;10.652;2024-02-23T10:29:11;2.77;;;1.73;;
14394;SDS011;7282;49.204;10.652;2024-02-23T10:31:37;2.17;;;1.50;;
14394;SDS011;7282;49.204;10.652;2024-02-23T10:34:07;1.60;;;1.50;;
14394;SDS011;7282;49.204;10.652;2024-02-23T10:36:35;2.90;;;1.50;;
14394;SDS011;7282;49.204;10.652;2024-02-23T10:39:02;4.07;;;1.77;;
14394;SDS011;7282;49.204;10.652;2024-02-23T10:41:30;3.10;;;1.97;;
14394;SDS011;7282;49.204;10.652;2024-02-23T10:43:58;2.93;;;1.70;;
14394;SDS011;7282;49.204;10.652;2024-02-23T10:46:26;1.93;;;1.83;;
14394;SDS011;7282;49.204;10.652;2024-02-23T10:48:53;2.20;;;2.00;;
14394;SDS011;7282;49.204;10.652;2024-02-23T10:51:21;4.77;;;2.00;;
14394;SDS011;7282;49.204;10.652;2024-02-23T10:53:48;4.00;;;2.17;;
14394;SDS011;7282;49.204;10.652;2024-02-23T10:56:15;2.27;;;2.07;;
14394;SDS011;7282;49.204;10.652;2024-02-23T10:58:42;2.20;;;2.00;;
14394;SDS011;7282;49.204;10.652;2024-02-23T11:01:09;3.57;;;2.43;;
14394;SDS011;7282;49.204;10.652;2024-02-23T11:03:37;2.70;;;2.30;;
14394;SDS011;7282;49.204;10.652;2024-02-23T11:06:07;3.00;;;2.53;;
14394;SDS011;7282;49.204;10.652;2024-02-23T11:08:34;3.07;;;2.50;;
14394;SDS011;7282;49.204;10.652;2024-02-23T11:11:08;3.50;;;2.77;;
14394;SDS011;7282;49.204;10.652;2024-02-23T11:13:35;5.63;;;3.63;;
14394;SDS011;7282;49.204;10.652;2024-02-23T11:16:02;3.63;;;3.20;;
14394;SDS011;7282;49.204;10.652;2024-02-23T11:18:29;3.60;;;2.53;;
14394;SDS011;7282;49.204;10.652;2024-02-23T11:21:02;4.60;;;2.70;;
14394;SDS011;7282;49.204;10.652;2024-02-23T11:23:41;4.40;;;2.00;;
14394;SDS011;7282;49.204;10.652;2024-02-23T11:26:10;1.97;;;1.70;;
14394;SDS011;7282;49.204;10.652;2024-02-23T11:28:49;2.50;;;2.03;;
14394;SDS011;7282;49.204;10.652;2024-02-23T11:31:24;2.50;;;1.53;;
14394;SDS011;7282;49.204;10.652;2024-02-23T11:33:48;2.80;;;2.07;;
14394;SDS011;7282;49.204;10.652;2024-02-23T11:36:28;3.30;;;1.70;;
14394;SDS011;7282;49.204;10.652;2024-02-23T11:38:53;3.47;;;1.90;;
14394;SDS011;7282;49.204;10.652;2024-02-23T11:41:21;5.87;;;1.83;;
14394;SDS011;7282;49.204;10.652;2024-02-23T11:43:49;3.07;;;1.40;;
14394;SDS011;7282;49.204;10.652;2024-02-23T11:46:16;4.17;;;1.90;;
14394;SDS011;7282;49.204;10.652;2024-02-23T11:48:43;3.73;;;2.17;;
14394;SDS011;7282;49.204;10.652;2024-02-23T11:51:10;3.83;;;2.30;;
14394;SDS011;7282;49.204;10.652;2024-02-23T11:53:36;4.37;;;2.10;;
14394;SDS011;7282;49.204;10.652;2024-02-23T11:56:05;3.53;;;1.90;;
14394;SDS011;7282;49.204;10.652;2024-02-23T11:58:32;2.53;;;1.80;;
14394;SDS011;7282;49.204;10.652;2024-02-23T12:01:04;2.77;;;1.80;;
14394;SDS011;7282;49.204;10.652;2024-02-23T12:03:29;3.57;;;1.70;;
14394;SDS011;7282;49.204;10.652;2024-02-23T12:06:03;4.93;;;1.73;;
14394;SDS011;7282;49.204;10.652;2024-02-23T12:08:28;4.20;;;1.80;;
14394;SDS011;7282;49.204;10.652;2024-02-23T12:10:56;1.90;;;1.30;;
14394;SDS011;7282;49.204;10.652;2024-02-23T12:13:23;2.90;;;1.90;;
14394;SDS011;7282;49.204;10.652;2024-02-23T12:15:52;3.67;;;1.70;;
14394;SDS011;7282;49.204;10.652;2024-02-23T12:18:22;2.13;;;1.30;;
14394;SDS011;7282;49.204;10.652;2024-02-23T12:20:59;2.83;;;1.77;;
14394;SDS011;7282;49.204;10.652;2024-02-23T12:23:27;3.53;;;1.60;;
14394;SDS011;7282;49.204;10.652;2024-02-23T12:25:58;1.63;;;1.10;;
14394;SDS011;7282;49.204;10.652;2024-02-23T12:28:25;1.30;;;1.20;;
14394;SDS011;7282;49.204;10.652;2024-02-23T12:31:03;2.40;;;1.20;;
14394;SDS011;7282;49.204;10.652;2024-02-23T12:33:31;2.67;;;1.80;;
14394;SDS011;7282;49.204;10.652;2024-02-23T12:35:58;5.90;;;2.60;;
14394;SDS011;7282;49.204;10.652;2024-02-23T12:38:25;2.17;;;1.97;;
14394;SDS011;7282;49.204;10.652;2024-02-23T12:40:51;4.07;;;2.00;;
14394;SDS011;7282;49.204;10.652;2024-02-23T12:43:18;2.47;;;1.77;;
14394;SDS011;7282;49.204;10.652;2024-02-23T12:45:47;3.57;;;1.90;;
14394;SDS011;7282;49.204;10.652;2024-02-23T12:48:17;5.13;;;2.20;;
14394;SDS011;7282;49.204;10.652;2024-02-23T12:50:44;2.30;;;1.93;;
14394;SDS011;7282;49.204;10.652;2024-02-23T12:55:57;1.97;;;1.60;;
14394;SDS011;7282;49.204;10.652;2024-02-23T12:58:24;3.40;;;2.20;;
14394;SDS011;7282;49.204;10.652;2024-02-23T13:00:51;2.80;;;2.20;;
14394;SDS011;7282;49.204;10.652;2024-02-23T13:03:18;4.33;;;2.50;;
14394;SDS011;7282;49.204;10.652;2024-02-23T13:05:45;2.30;;;2.10;;
14394;SDS011;7282;49.204;10.652;2024-02-23T13:08:13;2.30;;;2.10;;
14394;SDS011;7282;49.204;10.652;2024-02-23T13:10:39;3.00;;;2.20;;
14394;SDS011;7282;49.204;10.652;2024-02-23T13:13:06;4.80;;;2.47;;
14394;SDS011;7282;49.204;10.652;2024-02-23T13:15:33;3.13;;;2.20;;
14394;SDS011;7282;49.204;10.652;2024-02-23T13:18:00;2.07;;;1.87;;
14394;SDS011;7282;49.204;10.652;2024-02-23T13:20:28;4.20;;;2.20;;
14394;SDS011;7282;49.204;10.652;2024-02-23T13:22:55;3.50;;;2.30;;
14394;SDS011;7282;49.204;10.652;2024-02-23T13:25:22;2.30;;;2.10;;
14394;SDS011;7282;49.204;10.652;2024-02-23T13:27:48;3.13;;;2.07;;
14394;SDS011;7282;49.204;10.652;2024-02-23T13:30:15;2.93;;;2.03;;
14394;SDS011;7282;49.204;10.652;2024-02-23T13:32:42;3.43;;;2.27;;
14394;SDS011;7282;49.204;10.652;2024-02-23T13:35:09;3.97;;;2.17;;
14394;SDS011;7282;49.204;10.652;2024-02-23T13:37:36;3.33;;;2.13;;
14394;SDS011;7282;49.204;10.652;2024-02-23T13:40:02;3.17;;;2.17;;
14394;SDS011;7282;49.204;10.652;2024-02-23T13:42:31;2.90;;;2.27;;
14394;SDS011;7282;49.204;10.652;2024-02-23T13:44:58;3.67;;;2.57;;
14394;SDS011;7282;49.204;10.652;2024-02-23T13:47:24;5.90;;;2.83;;
14394;SDS011;7282;49.204;10.652;2024-02-23T13:49:51;3.80;;;2.30;;
14394;SDS011;7282;49.204;10.652;2024-02-23T13:52:18;3.37;;;2.30;;
14394;SDS011;7282;49.204;10.652;2024-02-23T13:54:44;3.40;;;2.20;;
14394;SDS011;7282;49.204;10.652;2024-02-23T13:57:11;4.80;;;2.20;;
14394;SDS011;7282;49.204;10.652;2024-02-23T13:59:38;3.37;;;2.23;;
14394;SDS011;7282;49.204;10.652;2024-02-23T14:02:04;2.93;;;2.43;;
14394;SDS011;7282;49.204;10.652;2024-02-23T14:04:31;2.93;;;2.10;;
14394;SDS011;7282;49.204;10.652;2024-02-23T14:06:58;3.67;;;2.13;;
14394;SDS011;7282;49.204;10.652;2024-02-23T14:09:25;3.03;;;2.20;;
14394;SDS011;7282;49.204;10.652;2024-02-23T14:11:52;4.80;;;2.73;;
14394;SDS011;7282;49.204;10.652;2024-02-23T14:14:18;3.77;;;2.60;;
14394;SDS011;7282;49.204;10.652;2024-02-23T14:16:46;3.60;;;2.80;;
14394;SDS011;7282;49.204;10.652;2024-02-23T14:19:12;5.40;;;2.60;;
14394;SDS011;7282;49.204;10.652;2024-02-23T14:21:39;3.47;;;2.20;;
14394;SDS011;7282;49.204;10.652;2024-02-23T14:24:06;2.97;;;1.80;;
14394;SDS011;7282;49.204;10.652;2024-02-23T14:26:33;2.17;;;2.00;;
14394;SDS011;7282;49.204;10.652;2024-02-23T14:29:00;3.70;;;1.90;;
14394;SDS011;7282;49.204;10.652;2024-02-23T14:31:28;3.57;;;1.60;;
14394;SDS011;7282;49.204;10.652;2024-02-23T14:33:54;5.17;;;1.87;;
14394;SDS011;7282;49.204;10.652;2024-02-23T14:36:21;2.20;;;1.60;;
14394;SDS011;7282;49.204;10.652;2024-02-23T14:38:48;2.03;;;1.53;;
14394;SDS011;7282;49.204;10.652;2024-02-23T14:41:14;4.77;;;2.10;;
14394;SDS011;7282;49.204;10.652;2024-02-23T14:43:41;2.60;;;1.70;;
14394;SDS011;7282;49.204;10.652;2024-02-23T14:46:08;3.93;;;1.73;;
14394;SDS011;7282;49.204;10.652;2024-02-23T14:48:35;6.47;;;1.90;;
14394;SDS011;7282;49.204;10.652;2024-02-23T14:51:02;2.43;;;2.20;;